sensor_id;sensor_type;location;lat;lon;timestamp;P1;durP1;ratioP1;P2;durP2;ratioP2
20527;SDS011;23612;50.894;10.700;2022-09-16T00:01:14;8.82;;;3.42;;
20527;SDS011;23612;50.894;10.700;2022-09-16T00:03:41;5.40;;;2.38;;
20527;SDS011;23612;50.894;10.700;2022-09-16T00:06:18;6.40;;;2.60;;
20527;SDS011;23612;50.894;10.700;2022-09-16T00:08:46;7.35;;;2.50;;
20527;SDS011;23612;50.894;10.700;2022-09-16T00:11:13;6.80;;;2.50;;
20527;SDS011;23612;50.894;10.700;2022-09-16T00:13:39;4.90;;;2.10;;
20527;SDS011;23612;50.894;10.700;2022-09-16T00:16:08;6.05;;;2.05;;
20527;SDS011;23612;50.894;10.700;2022-09-16T00:18:36;6.05;;;2.30;;
20527;SDS011;23612;50.894;10.700;2022-09-16T00:21:05;3.47;;;2.13;;
20527;SDS011;23612;50.894;10.700;2022-09-16T00:23:32;2.95;;;1.92;;
20527;SDS011;23612;50.894;10.700;2022-09-16T00:25:58;5.30;;;1.75;;
20527;SDS011;23612;50.894;10.700;2022-09-16T00:28:23;2.53;;;1.88;;
20527;SDS011;23612;50.894;10.700;2022-09-16T00:30:49;4.45;;;2.00;;
20527;SDS011;23612;50.894;10.700;2022-09-16T00:33:14;4.50;;;1.98;;
20527;SDS011;23612;50.894;10.700;2022-09-16T00:35:40;4.88;;;1.88;;
20527;SDS011;23612;50.894;10.700;2022-09-16T00:38:06;4.20;;;1.80;;
20527;SDS011;23612;50.894;10.700;2022-09-16T00:40:32;5.18;;;1.70;;
20527;SDS011;23612;50.894;10.700;2022-09-16T00:42:58;6.53;;;2.38;;
20527;SDS011;23612;50.894;10.700;2022-09-16T00:45:24;4.75;;;2.05;;
20527;SDS011;23612;50.894;10.700;2022-09-16T00:47:56;7.40;;;2.35;;
20527;SDS011;23612;50.894;10.700;2022-09-16T00:50:34;4.93;;;2.30;;
20527;SDS011;23612;50.894;10.700;2022-09-16T00:53:07;3.55;;;2.00;;
20527;SDS011;23612;50.894;10.700;2022-09-16T00:55:36;2.70;;;2.05;;
20527;SDS011;23612;50.894;10.700;2022-09-16T00:58:04;4.85;;;2.35;;
20527;SDS011;23612;50.894;10.700;2022-09-16T01:00:37;3.47;;;2.30;;
20527;SDS011;23612;50.894;10.700;2022-09-16T01:03:03;3.55;;;2.13;;
20527;SDS011;23612;50.894;10.700;2022-09-16T01:05:29;5.32;;;2.40;;
20527;SDS011;23612;50.894;10.700;2022-09-16T01:07:55;3.92;;;1.95;;
20527;SDS011;23612;50.894;10.700;2022-09-16T01:10:21;6.38;;;3.00;;
20527;SDS011;23612;50.894;10.700;2022-09-16T01:12:49;5.40;;;2.40;;
20527;SDS011;23612;50.894;10.700;2022-09-16T01:15:19;7.97;;;2.75;;
20527;SDS011;23612;50.894;10.700;2022-09-16T01:31:35;2.90;;;1.45;;
20527;SDS011;23612;50.894;10.700;2022-09-16T01:34:19;3.60;;;1.75;;
20527;SDS011;23612;50.894;10.700;2022-09-16T01:39:58;4.25;;;1.95;;
20527;SDS011;23612;50.894;10.700;2022-09-16T01:42:36;2.85;;;1.80;;
20527;SDS011;23612;50.894;10.700;2022-09-16T01:45:21;5.15;;;2.10;;
20527;SDS011;23612;50.894;10.700;2022-09-16T01:47:55;3.95;;;2.55;;
20527;SDS011;23612;50.894;10.700;2022-09-16T01:53:08;3.20;;;1.70;;
20527;SDS011;23612;50.894;10.700;2022-09-16T01:56:03;2.95;;;1.60;;
20527;SDS011;23612;50.894;10.700;2022-09-16T01:58:36;3.33;;;1.80;;
20527;SDS011;23612;50.894;10.700;2022-09-16T02:01:17;6.15;;;1.77;;
20527;SDS011;23612;50.894;10.700;2022-09-16T02:03:52;4.55;;;1.83;;
20527;SDS011;23612;50.894;10.700;2022-09-16T02:06:24;2.00;;;1.55;;
20527;SDS011;23612;50.894;10.700;2022-09-16T02:08:53;4.47;;;1.70;;
20527;SDS011;23612;50.894;10.700;2022-09-16T02:11:30;6.40;;;1.60;;
20527;SDS011;23612;50.894;10.700;2022-09-16T02:14:05;3.80;;;1.60;;
20527;SDS011;23612;50.894;10.700;2022-09-16T02:16:49;6.82;;;2.10;;
20527;SDS011;23612;50.894;10.700;2022-09-16T02:19:41;3.25;;;1.70;;
20527;SDS011;23612;50.894;10.700;2022-09-16T02:22:22;7.43;;;1.60;;
20527;SDS011;23612;50.894;10.700;2022-09-16T02:25:00;3.10;;;1.90;;
20527;SDS011;23612;50.894;10.700;2022-09-16T02:27:28;3.47;;;1.90;;
20527;SDS011;23612;50.894;10.700;2022-09-16T02:29:56;3.85;;;1.90;;
20527;SDS011;23612;50.894;10.700;2022-09-16T02:32:27;2.38;;;1.73;;
20527;SDS011;23612;50.894;10.700;2022-09-16T02:34:55;3.80;;;2.60;;
20527;SDS011;23612;50.894;10.700;2022-09-16T02:37:36;5.28;;;2.35;;
20527;SDS011;23612;50.894;10.700;2022-09-16T02:40:09;5.03;;;2.60;;
20527;SDS011;23612;50.894;10.700;2022-09-16T02:42:40;5.88;;;2.95;;
20527;SDS011;23612;50.894;10.700;2022-09-16T02:45:05;4.18;;;3.15;;
20527;SDS011;23612;50.894;10.700;2022-09-16T02:47:39;7.53;;;3.90;;
20527;SDS011;23612;50.894;10.700;2022-09-16T02:50:16;9.70;;;4.35;;
20527;SDS011;23612;50.894;10.700;2022-09-16T02:53:26;7.15;;;3.65;;
20527;SDS011;23612;50.894;10.700;2022-09-16T02:56:18;9.20;;;3.83;;
20527;SDS011;23612;50.894;10.700;2022-09-16T02:58:47;5.25;;;3.33;;
20527;SDS011;23612;50.894;10.700;2022-09-16T03:01:13;6.93;;;3.25;;
20527;SDS011;23612;50.894;10.700;2022-09-16T03:03:39;9.52;;;3.75;;
20527;SDS011;23612;50.894;10.700;2022-09-16T03:06:09;4.38;;;3.22;;
20527;SDS011;23612;50.894;10.700;2022-09-16T03:08:38;4.40;;;3.15;;
20527;SDS011;23612;50.894;10.700;2022-09-16T03:11:13;7.90;;;4.32;;
20527;SDS011;23612;50.894;10.700;2022-09-16T03:13:47;4.18;;;3.40;;
20527;SDS011;23612;50.894;10.700;2022-09-16T03:16:45;10.13;;;3.80;;
20527;SDS011;23612;50.894;10.700;2022-09-16T03:19:42;8.90;;;4.00;;
20527;SDS011;23612;50.894;10.700;2022-09-16T03:25:19;5.55;;;4.22;;
20527;SDS011;23612;50.894;10.700;2022-09-16T03:28:05;5.50;;;4.55;;
20527;SDS011;23612;50.894;10.700;2022-09-16T03:30:35;10.30;;;4.38;;
20527;SDS011;23612;50.894;10.700;2022-09-16T03:33:15;8.65;;;4.38;;
20527;SDS011;23612;50.894;10.700;2022-09-16T03:35:48;8.20;;;4.82;;
20527;SDS011;23612;50.894;10.700;2022-09-16T03:38:16;11.63;;;5.20;;
20527;SDS011;23612;50.894;10.700;2022-09-16T03:40:43;13.32;;;5.22;;
20527;SDS011;23612;50.894;10.700;2022-09-16T03:43:12;7.20;;;4.97;;
20527;SDS011;23612;50.894;10.700;2022-09-16T03:45:40;9.20;;;5.07;;
20527;SDS011;23612;50.894;10.700;2022-09-16T03:48:06;7.80;;;4.72;;
20527;SDS011;23612;50.894;10.700;2022-09-16T03:50:33;15.45;;;5.40;;
20527;SDS011;23612;50.894;10.700;2022-09-16T03:52:59;6.93;;;5.30;;
20527;SDS011;23612;50.894;10.700;2022-09-16T03:55:24;13.45;;;5.40;;
20527;SDS011;23612;50.894;10.700;2022-09-16T03:57:51;7.43;;;5.32;;
20527;SDS011;23612;50.894;10.700;2022-09-16T04:00:17;12.05;;;5.28;;
20527;SDS011;23612;50.894;10.700;2022-09-16T04:02:43;14.10;;;5.78;;
20527;SDS011;23612;50.894;10.700;2022-09-16T04:05:08;12.43;;;6.53;;
20527;SDS011;23612;50.894;10.700;2022-09-16T04:07:34;12.35;;;5.80;;
20527;SDS011;23612;50.894;10.700;2022-09-16T04:09:59;10.57;;;6.35;;
20527;SDS011;23612;50.894;10.700;2022-09-16T04:12:26;11.77;;;6.22;;
20527;SDS011;23612;50.894;10.700;2022-09-16T04:14:52;12.20;;;7.32;;
20527;SDS011;23612;50.894;10.700;2022-09-16T04:17:17;13.13;;;6.30;;
20527;SDS011;23612;50.894;10.700;2022-09-16T04:19:43;11.65;;;6.70;;
20527;SDS011;23612;50.894;10.700;2022-09-16T04:22:08;15.32;;;6.78;;
20527;SDS011;23612;50.894;10.700;2022-09-16T04:24:34;11.05;;;6.20;;
20527;SDS011;23612;50.894;10.700;2022-09-16T04:27:00;8.90;;;6.78;;
20527;SDS011;23612;50.894;10.700;2022-09-16T04:29:25;14.35;;;6.95;;
20527;SDS011;23612;50.894;10.700;2022-09-16T04:31:51;11.38;;;6.30;;
20527;SDS011;23612;50.894;10.700;2022-09-16T04:34:17;7.70;;;5.88;;
20527;SDS011;23612;50.894;10.700;2022-09-16T04:36:43;11.45;;;5.40;;
20527;SDS011;23612;50.894;10.700;2022-09-16T04:39:09;11.80;;;6.38;;
20527;SDS011;23612;50.894;10.700;2022-09-16T04:41:36;11.02;;;5.95;;
20527;SDS011;23612;50.894;10.700;2022-09-16T04:44:01;14.20;;;5.95;;
20527;SDS011;23612;50.894;10.700;2022-09-16T04:46:28;9.88;;;6.03;;
20527;SDS011;23612;50.894;10.700;2022-09-16T04:48:55;9.43;;;6.20;;
20527;SDS011;23612;50.894;10.700;2022-09-16T04:51:21;12.35;;;5.95;;
20527;SDS011;23612;50.894;10.700;2022-09-16T04:53:48;9.85;;;6.25;;
20527;SDS011;23612;50.894;10.700;2022-09-16T04:56:15;11.68;;;5.45;;
20527;SDS011;23612;50.894;10.700;2022-09-16T04:58:48;12.07;;;5.97;;
20527;SDS011;23612;50.894;10.700;2022-09-16T05:01:16;12.82;;;6.90;;
20527;SDS011;23612;50.894;10.700;2022-09-16T05:03:44;10.85;;;6.40;;
20527;SDS011;23612;50.894;10.700;2022-09-16T05:06:12;9.13;;;6.07;;
20527;SDS011;23612;50.894;10.700;2022-09-16T05:08:48;15.60;;;6.18;;
20527;SDS011;23612;50.894;10.700;2022-09-16T05:11:21;8.18;;;5.57;;
20527;SDS011;23612;50.894;10.700;2022-09-16T05:13:48;9.50;;;5.65;;
20527;SDS011;23612;50.894;10.700;2022-09-16T05:16:15;10.77;;;5.53;;
20527;SDS011;23612;50.894;10.700;2022-09-16T05:18:42;9.23;;;5.57;;
20527;SDS011;23612;50.894;10.700;2022-09-16T05:21:11;9.60;;;5.28;;
20527;SDS011;23612;50.894;10.700;2022-09-16T05:23:38;11.55;;;5.95;;
20527;SDS011;23612;50.894;10.700;2022-09-16T05:26:09;9.38;;;5.95;;
20527;SDS011;23612;50.894;10.700;2022-09-16T05:28:36;8.45;;;5.93;;
20527;SDS011;23612;50.894;10.700;2022-09-16T05:31:13;14.10;;;7.97;;
20527;SDS011;23612;50.894;10.700;2022-09-16T05:33:39;14.00;;;6.50;;
20527;SDS011;23612;50.894;10.700;2022-09-16T05:36:11;13.05;;;5.70;;
20527;SDS011;23612;50.894;10.700;2022-09-16T05:38:37;12.30;;;6.05;;
20527;SDS011;23612;50.894;10.700;2022-09-16T05:41:03;9.43;;;5.45;;
20527;SDS011;23612;50.894;10.700;2022-09-16T05:43:30;11.85;;;6.10;;
20527;SDS011;23612;50.894;10.700;2022-09-16T05:45:56;11.43;;;6.13;;
20527;SDS011;23612;50.894;10.700;2022-09-16T05:48:21;11.50;;;6.00;;
20527;SDS011;23612;50.894;10.700;2022-09-16T05:51:00;6.65;;;5.55;;
20527;SDS011;23612;50.894;10.700;2022-09-16T05:53:29;12.88;;;5.72;;
20527;SDS011;23612;50.894;10.700;2022-09-16T05:55:56;10.48;;;5.68;;
20527;SDS011;23612;50.894;10.700;2022-09-16T05:58:24;6.90;;;4.85;;
20527;SDS011;23612;50.894;10.700;2022-09-16T06:00:50;5.25;;;4.43;;
20527;SDS011;23612;50.894;10.700;2022-09-16T06:03:21;6.72;;;4.75;;
20527;SDS011;23612;50.894;10.700;2022-09-16T06:05:47;6.97;;;4.55;;
20527;SDS011;23612;50.894;10.700;2022-09-16T06:08:12;6.95;;;4.00;;
20527;SDS011;23612;50.894;10.700;2022-09-16T06:10:38;5.80;;;3.50;;
20527;SDS011;23612;50.894;10.700;2022-09-16T06:13:05;3.72;;;2.60;;
20527;SDS011;23612;50.894;10.700;2022-09-16T06:15:30;6.13;;;2.60;;
20527;SDS011;23612;50.894;10.700;2022-09-16T06:17:56;5.75;;;2.30;;
20527;SDS011;23612;50.894;10.700;2022-09-16T06:20:22;3.63;;;2.10;;
20527;SDS011;23612;50.894;10.700;2022-09-16T06:22:48;8.32;;;2.70;;
20527;SDS011;23612;50.894;10.700;2022-09-16T06:25:13;3.63;;;2.40;;
20527;SDS011;23612;50.894;10.700;2022-09-16T06:27:39;5.25;;;2.10;;
20527;SDS011;23612;50.894;10.700;2022-09-16T06:30:04;6.30;;;2.10;;
20527;SDS011;23612;50.894;10.700;2022-09-16T06:32:30;2.28;;;1.90;;
20527;SDS011;23612;50.894;10.700;2022-09-16T06:34:56;5.50;;;3.78;;
20527;SDS011;23612;50.894;10.700;2022-09-16T06:37:21;3.03;;;2.00;;
20527;SDS011;23612;50.894;10.700;2022-09-16T06:39:47;3.38;;;2.10;;
20527;SDS011;23612;50.894;10.700;2022-09-16T06:42:12;3.92;;;1.80;;
20527;SDS011;23612;50.894;10.700;2022-09-16T06:44:38;3.50;;;1.60;;
20527;SDS011;23612;50.894;10.700;2022-09-16T06:47:03;5.10;;;1.98;;
20527;SDS011;23612;50.894;10.700;2022-09-16T06:49:29;8.07;;;1.90;;
20527;SDS011;23612;50.894;10.700;2022-09-16T06:51:55;3.20;;;1.58;;
20527;SDS011;23612;50.894;10.700;2022-09-16T06:54:20;5.30;;;2.22;;
20527;SDS011;23612;50.894;10.700;2022-09-16T06:56:46;4.55;;;2.00;;
20527;SDS011;23612;50.894;10.700;2022-09-16T06:59:11;3.53;;;1.90;;
20527;SDS011;23612;50.894;10.700;2022-09-16T07:01:38;3.72;;;1.80;;
20527;SDS011;23612;50.894;10.700;2022-09-16T07:04:05;6.72;;;1.90;;
20527;SDS011;23612;50.894;10.700;2022-09-16T07:06:35;4.68;;;2.05;;
20527;SDS011;23612;50.894;10.700;2022-09-16T07:09:01;4.53;;;1.92;;
20527;SDS011;23612;50.894;10.700;2022-09-16T07:11:27;5.70;;;1.73;;
20527;SDS011;23612;50.894;10.700;2022-09-16T07:13:52;4.28;;;1.75;;
20527;SDS011;23612;50.894;10.700;2022-09-16T07:16:19;3.65;;;1.30;;
20527;SDS011;23612;50.894;10.700;2022-09-16T07:18:46;2.08;;;1.35;;
20527;SDS011;23612;50.894;10.700;2022-09-16T07:21:16;4.57;;;1.70;;
20527;SDS011;23612;50.894;10.700;2022-09-16T07:23:44;2.72;;;1.55;;
20527;SDS011;23612;50.894;10.700;2022-09-16T07:26:11;1.98;;;1.33;;
20527;SDS011;23612;50.894;10.700;2022-09-16T07:28:41;3.70;;;1.80;;
20527;SDS011;23612;50.894;10.700;2022-09-16T07:31:09;4.63;;;1.60;;
20527;SDS011;23612;50.894;10.700;2022-09-16T07:33:40;2.90;;;1.60;;
20527;SDS011;23612;50.894;10.700;2022-09-16T07:36:08;4.13;;;1.45;;
20527;SDS011;23612;50.894;10.700;2022-09-16T07:38:36;4.15;;;1.85;;
20527;SDS011;23612;50.894;10.700;2022-09-16T07:43:33;3.38;;;1.70;;
20527;SDS011;23612;50.894;10.700;2022-09-16T07:45:59;4.57;;;1.70;;
20527;SDS011;23612;50.894;10.700;2022-09-16T07:48:25;6.57;;;1.50;;
20527;SDS011;23612;50.894;10.700;2022-09-16T07:50:57;3.42;;;1.58;;
20527;SDS011;23612;50.894;10.700;2022-09-16T07:53:25;3.40;;;1.60;;
20527;SDS011;23612;50.894;10.700;2022-09-16T07:55:51;5.35;;;1.75;;
20527;SDS011;23612;50.894;10.700;2022-09-16T07:58:17;3.30;;;1.60;;
20527;SDS011;23612;50.894;10.700;2022-09-16T08:00:43;4.28;;;1.92;;
20527;SDS011;23612;50.894;10.700;2022-09-16T08:03:09;1.63;;;1.45;;
20527;SDS011;23612;50.894;10.700;2022-09-16T08:05:34;2.90;;;1.45;;
20527;SDS011;23612;50.894;10.700;2022-09-16T08:08:00;7.07;;;1.77;;
20527;SDS011;23612;50.894;10.700;2022-09-16T08:10:26;4.38;;;1.50;;
20527;SDS011;23612;50.894;10.700;2022-09-16T08:12:51;4.57;;;1.80;;
20527;SDS011;23612;50.894;10.700;2022-09-16T08:15:17;5.82;;;1.70;;
20527;SDS011;23612;50.894;10.700;2022-09-16T08:17:42;2.13;;;1.73;;
20527;SDS011;23612;50.894;10.700;2022-09-16T08:20:08;2.83;;;1.70;;
20527;SDS011;23612;50.894;10.700;2022-09-16T08:22:33;5.25;;;1.90;;
20527;SDS011;23612;50.894;10.700;2022-09-16T08:24:59;8.10;;;2.00;;
20527;SDS011;23612;50.894;10.700;2022-09-16T08:27:24;2.33;;;1.77;;
20527;SDS011;23612;50.894;10.700;2022-09-16T08:29:50;6.95;;;2.17;;
20527;SDS011;23612;50.894;10.700;2022-09-16T08:32:16;6.07;;;2.15;;
20527;SDS011;23612;50.894;10.700;2022-09-16T08:34:41;3.28;;;2.00;;
20527;SDS011;23612;50.894;10.700;2022-09-16T08:37:07;4.93;;;1.98;;
20527;SDS011;23612;50.894;10.700;2022-09-16T08:39:33;5.72;;;2.03;;
20527;SDS011;23612;50.894;10.700;2022-09-16T08:50:15;5.53;;;2.47;;
20527;SDS011;23612;50.894;10.700;2022-09-16T08:52:46;4.55;;;1.75;;
20527;SDS011;23612;50.894;10.700;2022-09-16T08:55:14;3.50;;;1.90;;
20527;SDS011;23612;50.894;10.700;2022-09-16T08:57:59;3.28;;;1.77;;
20527;SDS011;23612;50.894;10.700;2022-09-16T09:00:31;2.25;;;1.50;;
20527;SDS011;23612;50.894;10.700;2022-09-16T09:03:01;2.10;;;1.40;;
20527;SDS011;23612;50.894;10.700;2022-09-16T09:11:14;4.28;;;1.33;;
20527;SDS011;23612;50.894;10.700;2022-09-16T09:13:43;1.75;;;1.30;;
20527;SDS011;23612;50.894;10.700;2022-09-16T09:16:34;4.82;;;1.88;;
20527;SDS011;23612;50.894;10.700;2022-09-16T09:27:03;3.65;;;1.60;;
20527;SDS011;23612;50.894;10.700;2022-09-16T09:32:27;3.13;;;1.60;;
20527;SDS011;23612;50.894;10.700;2022-09-16T09:35:16;4.15;;;1.60;;
20527;SDS011;23612;50.894;10.700;2022-09-16T09:38:09;3.03;;;1.63;;
20527;SDS011;23612;50.894;10.700;2022-09-16T09:40:52;4.85;;;1.85;;
20527;SDS011;23612;50.894;10.700;2022-09-16T09:46:16;3.72;;;1.60;;
20527;SDS011;23612;50.894;10.700;2022-09-16T09:48:57;5.30;;;1.30;;
20527;SDS011;23612;50.894;10.700;2022-09-16T09:51:35;2.10;;;1.38;;
20527;SDS011;23612;50.894;10.700;2022-09-16T09:54:15;3.40;;;1.70;;
20527;SDS011;23612;50.894;10.700;2022-09-16T09:59:42;4.43;;;1.70;;
20527;SDS011;23612;50.894;10.700;2022-09-16T10:02:16;7.57;;;1.75;;
20527;SDS011;23612;50.894;10.700;2022-09-16T10:04:44;4.10;;;1.77;;
20527;SDS011;23612;50.894;10.700;2022-09-16T10:07:13;4.78;;;1.40;;
20527;SDS011;23612;50.894;10.700;2022-09-16T10:09:55;2.38;;;1.40;;
20527;SDS011;23612;50.894;10.700;2022-09-16T10:12:25;7.72;;;1.60;;
20527;SDS011;23612;50.894;10.700;2022-09-16T10:14:53;6.50;;;1.27;;
20527;SDS011;23612;50.894;10.700;2022-09-16T10:17:18;1.98;;;1.00;;
20527;SDS011;23612;50.894;10.700;2022-09-16T10:19:57;7.47;;;1.58;;
20527;SDS011;23612;50.894;10.700;2022-09-16T10:22:33;1.02;;;0.90;;
20527;SDS011;23612;50.894;10.700;2022-09-16T10:25:04;4.50;;;1.50;;
20527;SDS011;23612;50.894;10.700;2022-09-16T10:27:52;3.03;;;1.30;;
20527;SDS011;23612;50.894;10.700;2022-09-16T10:30:20;1.60;;;1.50;;
20527;SDS011;23612;50.894;10.700;2022-09-16T10:32:49;6.53;;;1.27;;
20527;SDS011;23612;50.894;10.700;2022-09-16T10:35:26;2.63;;;1.55;;
20527;SDS011;23612;50.894;10.700;2022-09-16T10:37:54;2.67;;;1.45;;
20527;SDS011;23612;50.894;10.700;2022-09-16T10:40:26;2.28;;;1.42;;
20527;SDS011;23612;50.894;10.700;2022-09-16T10:42:52;6.43;;;1.52;;
20527;SDS011;23612;50.894;10.700;2022-09-16T10:45:28;3.97;;;1.17;;
20527;SDS011;23612;50.894;10.700;2022-09-16T10:47:58;1.50;;;0.95;;
20527;SDS011;23612;50.894;10.700;2022-09-16T10:50:25;5.85;;;1.17;;
20527;SDS011;23612;50.894;10.700;2022-09-16T10:52:51;1.23;;;1.13;;
20527;SDS011;23612;50.894;10.700;2022-09-16T10:55:22;4.00;;;1.40;;
20527;SDS011;23612;50.894;10.700;2022-09-16T10:58:16;8.32;;;1.60;;
20527;SDS011;23612;50.894;10.700;2022-09-16T11:01:06;5.60;;;1.50;;
20527;SDS011;23612;50.894;10.700;2022-09-16T11:09:04;3.42;;;2.10;;
20527;SDS011;23612;50.894;10.700;2022-09-16T11:17:59;3.38;;;1.30;;
20527;SDS011;23612;50.894;10.700;2022-09-16T11:25:54;1.20;;;0.63;;
20527;SDS011;23612;50.894;10.700;2022-09-16T11:34:16;1.42;;;0.80;;
20527;SDS011;23612;50.894;10.700;2022-09-16T11:42:29;1.50;;;0.82;;
20527;SDS011;23612;50.894;10.700;2022-09-16T11:47:47;0.90;;;0.50;;
20527;SDS011;23612;50.894;10.700;2022-09-16T11:56:01;0.68;;;0.55;;
20527;SDS011;23612;50.894;10.700;2022-09-16T11:58:35;0.98;;;0.70;;
20527;SDS011;23612;50.894;10.700;2022-09-16T12:01:24;1.10;;;0.95;;
20527;SDS011;23612;50.894;10.700;2022-09-16T12:06:39;1.17;;;0.90;;
20527;SDS011;23612;50.894;10.700;2022-09-16T12:09:18;2.17;;;0.88;;
20527;SDS011;23612;50.894;10.700;2022-09-16T12:11:51;1.60;;;0.95;;
20527;SDS011;23612;50.894;10.700;2022-09-16T12:14:32;1.92;;;0.90;;
20527;SDS011;23612;50.894;10.700;2022-09-16T12:17:11;3.17;;;0.95;;
20527;SDS011;23612;50.894;10.700;2022-09-16T12:24:57;0.90;;;0.90;;
20527;SDS011;23612;50.894;10.700;2022-09-16T12:27:40;4.90;;;1.02;;
20527;SDS011;23612;50.894;10.700;2022-09-16T12:30:21;1.27;;;0.95;;
20527;SDS011;23612;50.894;10.700;2022-09-16T12:35:31;1.65;;;0.98;;
20527;SDS011;23612;50.894;10.700;2022-09-16T12:38:00;2.22;;;1.00;;
20527;SDS011;23612;50.894;10.700;2022-09-16T12:40:27;3.72;;;1.10;;
20527;SDS011;23612;50.894;10.700;2022-09-16T12:46:24;2.05;;;1.20;;
20527;SDS011;23612;50.894;10.700;2022-09-16T12:52:15;3.40;;;1.20;;
20527;SDS011;23612;50.894;10.700;2022-09-16T13:00:28;2.28;;;1.10;;
20527;SDS011;23612;50.894;10.700;2022-09-16T13:03:05;1.75;;;1.20;;
20527;SDS011;23612;50.894;10.700;2022-09-16T13:05:42;1.20;;;0.82;;
20527;SDS011;23612;50.894;10.700;2022-09-16T13:08:18;1.40;;;1.10;;
20527;SDS011;23612;50.894;10.700;2022-09-16T13:10:53;1.40;;;1.30;;
20527;SDS011;23612;50.894;10.700;2022-09-16T13:13:40;1.70;;;1.60;;
20527;SDS011;23612;50.894;10.700;2022-09-16T13:16:09;4.22;;;2.50;;
20527;SDS011;23612;50.894;10.700;2022-09-16T13:21:17;2.90;;;1.02;;
20527;SDS011;23612;50.894;10.700;2022-09-16T13:23:59;0.70;;;0.70;;
20527;SDS011;23612;50.894;10.700;2022-09-16T13:26:41;4.38;;;0.80;;
20527;SDS011;23612;50.894;10.700;2022-09-16T13:31:56;2.30;;;0.80;;
20527;SDS011;23612;50.894;10.700;2022-09-16T13:34:22;4.20;;;1.17;;
20527;SDS011;23612;50.894;10.700;2022-09-16T13:36:48;1.33;;;0.77;;
20527;SDS011;23612;50.894;10.700;2022-09-16T13:39:25;4.95;;;0.80;;
20527;SDS011;23612;50.894;10.700;2022-09-16T13:41:56;1.27;;;0.60;;
20527;SDS011;23612;50.894;10.700;2022-09-16T13:49:32;1.58;;;0.90;;
20527;SDS011;23612;50.894;10.700;2022-09-16T13:52:07;1.88;;;0.80;;
20527;SDS011;23612;50.894;10.700;2022-09-16T13:54:42;1.20;;;0.85;;
20527;SDS011;23612;50.894;10.700;2022-09-16T14:00:14;2.28;;;0.90;;
20527;SDS011;23612;50.894;10.700;2022-09-16T14:08:48;3.13;;;1.67;;
20527;SDS011;23612;50.894;10.700;2022-09-16T14:11:19;0.93;;;0.90;;
20527;SDS011;23612;50.894;10.700;2022-09-16T14:13:55;1.90;;;1.38;;
20527;SDS011;23612;50.894;10.700;2022-09-16T14:16:27;1.95;;;1.10;;
20527;SDS011;23612;50.894;10.700;2022-09-16T14:19:00;5.60;;;2.85;;
20527;SDS011;23612;50.894;10.700;2022-09-16T14:21:30;2.20;;;1.15;;
20527;SDS011;23612;50.894;10.700;2022-09-16T14:26:53;1.73;;;1.38;;
20527;SDS011;23612;50.894;10.700;2022-09-16T14:29:20;2.78;;;1.40;;
20527;SDS011;23612;50.894;10.700;2022-09-16T14:31:48;3.35;;;1.15;;
20527;SDS011;23612;50.894;10.700;2022-09-16T14:34:34;2.20;;;1.13;;
20527;SDS011;23612;50.894;10.700;2022-09-16T14:37:01;1.52;;;1.10;;
20527;SDS011;23612;50.894;10.700;2022-09-16T14:39:29;0.90;;;0.70;;
20527;SDS011;23612;50.894;10.700;2022-09-16T14:44:39;3.22;;;1.17;;
20527;SDS011;23612;50.894;10.700;2022-09-16T14:49:50;0.90;;;0.90;;
20527;SDS011;23612;50.894;10.700;2022-09-16T14:52:21;2.95;;;1.40;;
20527;SDS011;23612;50.894;10.700;2022-09-16T14:54:48;2.15;;;0.82;;
20527;SDS011;23612;50.894;10.700;2022-09-16T14:57:22;0.75;;;0.70;;
20527;SDS011;23612;50.894;10.700;2022-09-16T14:59:50;4.30;;;1.10;;
20527;SDS011;23612;50.894;10.700;2022-09-16T15:05:02;9.60;;;1.30;;
20527;SDS011;23612;50.894;10.700;2022-09-16T15:07:45;1.30;;;1.20;;
20527;SDS011;23612;50.894;10.700;2022-09-16T15:10:27;5.30;;;1.10;;
20527;SDS011;23612;50.894;10.700;2022-09-16T15:12:55;1.83;;;1.50;;
20527;SDS011;23612;50.894;10.700;2022-09-16T15:15:24;2.63;;;1.20;;
20527;SDS011;23612;50.894;10.700;2022-09-16T15:18:37;5.13;;;1.60;;
20527;SDS011;23612;50.894;10.700;2022-09-16T15:21:00;4.15;;;1.23;;
20527;SDS011;23612;50.894;10.700;2022-09-16T15:23:45;1.67;;;1.10;;
20527;SDS011;23612;50.894;10.700;2022-09-16T15:26:17;1.25;;;1.15;;
20527;SDS011;23612;50.894;10.700;2022-09-16T15:28:57;1.98;;;1.75;;
20527;SDS011;23612;50.894;10.700;2022-09-16T15:31:30;5.78;;;1.23;;
20527;SDS011;23612;50.894;10.700;2022-09-16T15:33:58;2.03;;;1.00;;
20527;SDS011;23612;50.894;10.700;2022-09-16T15:36:33;4.00;;;1.10;;
20527;SDS011;23612;50.894;10.700;2022-09-16T15:39:04;3.63;;;1.20;;
20527;SDS011;23612;50.894;10.700;2022-09-16T15:41:30;3.80;;;1.08;;
20527;SDS011;23612;50.894;10.700;2022-09-16T15:43:56;1.50;;;0.98;;
20527;SDS011;23612;50.894;10.700;2022-09-16T15:46:23;1.75;;;1.30;;
20527;SDS011;23612;50.894;10.700;2022-09-16T15:51:23;2.38;;;1.35;;
20527;SDS011;23612;50.894;10.700;2022-09-16T15:54:05;2.13;;;1.40;;
20527;SDS011;23612;50.894;10.700;2022-09-16T15:59:30;1.08;;;1.05;;
20527;SDS011;23612;50.894;10.700;2022-09-16T16:02:00;1.98;;;1.60;;
20527;SDS011;23612;50.894;10.700;2022-09-16T16:04:30;1.42;;;1.13;;
20527;SDS011;23612;50.894;10.700;2022-09-16T16:11:53;1.95;;;0.90;;
20527;SDS011;23612;50.894;10.700;2022-09-16T16:14:23;1.85;;;0.98;;
20527;SDS011;23612;50.894;10.700;2022-09-16T16:16:54;3.20;;;0.80;;
20527;SDS011;23612;50.894;10.700;2022-09-16T16:19:21;1.33;;;0.55;;
20527;SDS011;23612;50.894;10.700;2022-09-16T16:21:47;2.38;;;0.57;;
20527;SDS011;23612;50.894;10.700;2022-09-16T16:24:13;1.65;;;0.50;;
20527;SDS011;23612;50.894;10.700;2022-09-16T16:26:39;1.55;;;0.70;;
20527;SDS011;23612;50.894;10.700;2022-09-16T16:29:05;0.70;;;0.60;;
20527;SDS011;23612;50.894;10.700;2022-09-16T16:31:31;2.85;;;0.50;;
20527;SDS011;23612;50.894;10.700;2022-09-16T16:33:57;4.55;;;0.70;;
20527;SDS011;23612;50.894;10.700;2022-09-16T16:36:22;3.22;;;0.57;;
20527;SDS011;23612;50.894;10.700;2022-09-16T16:38:48;0.55;;;0.40;;
20527;SDS011;23612;50.894;10.700;2022-09-16T16:41:23;1.05;;;0.70;;
20527;SDS011;23612;50.894;10.700;2022-09-16T16:43:49;4.03;;;0.45;;
20527;SDS011;23612;50.894;10.700;2022-09-16T16:46:15;2.20;;;0.50;;
20527;SDS011;23612;50.894;10.700;2022-09-16T16:48:41;1.75;;;0.88;;
20527;SDS011;23612;50.894;10.700;2022-09-16T16:51:09;3.00;;;1.00;;
20527;SDS011;23612;50.894;10.700;2022-09-16T16:53:35;0.50;;;0.50;;
20527;SDS011;23612;50.894;10.700;2022-09-16T16:56:02;1.00;;;0.63;;
20527;SDS011;23612;50.894;10.700;2022-09-16T16:58:30;5.88;;;0.65;;
20527;SDS011;23612;50.894;10.700;2022-09-16T17:01:05;2.47;;;0.95;;
20527;SDS011;23612;50.894;10.700;2022-09-16T17:03:32;1.73;;;0.88;;
20527;SDS011;23612;50.894;10.700;2022-09-16T17:05:57;3.67;;;1.10;;
20527;SDS011;23612;50.894;10.700;2022-09-16T17:08:23;2.15;;;0.60;;
20527;SDS011;23612;50.894;10.700;2022-09-16T17:10:56;0.60;;;0.57;;
20527;SDS011;23612;50.894;10.700;2022-09-16T17:13:29;1.65;;;0.80;;
20527;SDS011;23612;50.894;10.700;2022-09-16T17:15:55;2.45;;;1.15;;
20527;SDS011;23612;50.894;10.700;2022-09-16T17:18:21;2.78;;;0.88;;
20527;SDS011;23612;50.894;10.700;2022-09-16T17:20:46;1.05;;;0.77;;
20527;SDS011;23612;50.894;10.700;2022-09-16T17:23:12;1.25;;;0.70;;
20527;SDS011;23612;50.894;10.700;2022-09-16T17:25:37;2.30;;;0.90;;
20527;SDS011;23612;50.894;10.700;2022-09-16T17:28:03;2.53;;;0.88;;
20527;SDS011;23612;50.894;10.700;2022-09-16T17:30:28;0.70;;;0.70;;